Time;durP1;ratioP1;P1;durP2;ratioP2;P2;SDS_P1;SDS_P2;PMS_P1;PMS_P2;Temp;Humidity;BMP_temperature;BMP_pressure;BME280_temperature;BME280_humidity;BME280_pressure;Samples;Min_cycle;Max_cycle;Signal;HPM_P1;HPM_P2
2023/10/04 00:01:09;;;;;;;2.17;1.55;;;13.80;99.90;;;;;;5128347;27;20037;-42
2023/10/04 00:03:36;;;;;;;2.92;1.25;;;13.80;99.90;;;;;;5063064;28;20018;-42
2023/10/04 00:06:02;;;;;;;2.95;1.70;;;13.80;99.90;;;;;;5117656;27;20022;-42
2023/10/04 00:08:30;;;;;;;2.38;1.60;;;13.80;99.90;;;;;;5071395;27;20069;-43
2023/10/04 00:10:59;;;;;;;4.63;2.00;;;13.80;99.90;;;;;;5106548;27;20461;-42
2023/10/04 00:13:28;;;;;;;4.75;1.88;;;13.90;99.90;;;;;;5081386;27;20570;-42
2023/10/04 00:15:54;;;;;;;5.03;2.00;;;13.80;99.90;;;;;;5097252;27;20541;-43
2023/10/04 00:18:19;;;;;;;2.53;1.70;;;13.90;99.90;;;;;;5091214;27;20399;-43
2023/10/04 00:20:45;;;;;;;2.88;1.92;;;13.80;99.90;;;;;;5083566;27;20034;-43
2023/10/04 00:23:13;;;;;;;4.32;2.15;;;13.90;99.90;;;;;;5105887;27;20036;-43
2023/10/04 00:25:39;;;;;;;3.60;2.00;;;13.90;99.90;;;;;;5071149;27;20029;-42
2023/10/04 00:28:04;;;;;;;4.70;2.13;;;13.90;99.90;;;;;;5118117;27;20580;-43
2023/10/04 00:30:30;;;;;;;3.38;1.65;;;13.90;99.90;;;;;;5069709;27;20101;-43
2023/10/04 00:32:57;;;;;;;3.65;1.98;;;13.80;99.90;;;;;;5089387;27;20592;-43
2023/10/04 00:35:25;;;;;;;2.75;1.70;;;13.90;99.90;;;;;;5064684;27;20039;-43
2023/10/04 00:37:55;;;;;;;3.80;2.00;;;13.80;99.90;;;;;;5124435;27;20037;-43
2023/10/04 00:40:27;;;;;;;2.92;1.73;;;13.90;99.90;;;;;;5061379;28;20104;-44
2023/10/04 00:43:00;;;;;;;4.53;1.58;;;13.80;99.90;;;;;;5127849;27;20028;-42
2023/10/04 00:45:27;;;;;;;2.67;1.48;;;13.80;99.90;;;;;;5062478;28;20036;-42
2023/10/04 00:47:57;;;;;;;2.88;1.80;;;13.90;99.90;;;;;;5127285;27;20373;-42
2023/10/04 00:50:31;;;;;;;2.28;1.50;;;13.90;99.90;;;;;;5061990;28;20154;-42
2023/10/04 00:53:05;;;;;;;2.47;1.80;;;13.90;99.90;;;;;;5128563;27;20102;-43
2023/10/04 00:55:43;;;;;;;2.00;1.52;;;13.80;99.90;;;;;;5062513;28;20033;-42
2023/10/04 00:58:11;;;;;;;2.53;1.40;;;13.90;99.90;;;;;;5127707;27;20022;-42
2023/10/04 01:00:38;;;;;;;2.47;1.40;;;13.90;99.90;;;;;;5061188;28;20549;-42
2023/10/04 01:03:05;;;;;;;2.95;1.63;;;13.80;99.90;;;;;;5123558;27;20552;-43
2023/10/04 01:05:32;;;;;;;4.00;1.63;;;13.80;99.90;;;;;;5064932;27;20028;-42
2023/10/04 01:07:59;;;;;;;3.80;1.50;;;13.80;99.90;;;;;;5110641;27;20511;-41
2023/10/04 01:10:30;;;;;;;4.55;1.90;;;13.80;99.90;;;;;;5076320;27;20498;-42
2023/10/04 01:12:56;;;;;;;3.92;1.73;;;13.70;99.90;;;;;;5103444;27;20025;-42
2023/10/04 01:17:53;;;;;;;3.58;1.67;;;13.70;99.90;;;;;;5090941;27;20030;-43
2023/10/04 01:20:22;;;;;;;4.10;1.50;;;13.70;99.90;;;;;;5095957;27;20394;-42
2023/10/04 01:22:47;;;;;;;3.55;2.15;;;13.70;99.90;;;;;;5080172;27;20025;-43
2023/10/04 01:25:15;;;;;;;2.03;1.45;;;13.80;99.90;;;;;;5106657;27;20028;-43
2023/10/04 01:27:44;;;;;;;3.08;1.42;;;13.80;99.90;;;;;;5069215;27;20027;-43
2023/10/04 01:30:10;;;;;;;4.25;1.83;;;13.70;99.90;;;;;;5115978;27;20491;-43
2023/10/04 01:32:39;;;;;;;4.03;1.85;;;13.80;99.90;;;;;;5101884;27;20145;-44
2023/10/04 01:35:08;;;;;;;4.20;2.00;;;13.70;99.90;;;;;;5107095;27;20809;-42
2023/10/04 01:37:39;;;;;;;3.70;2.00;;;13.80;99.90;;;;;;5158863;27;20045;-43
2023/10/04 01:40:12;;;;;;;3.28;1.80;;;13.70;99.90;;;;;;5116626;27;20621;-43
2023/10/04 01:42:40;;;;;;;3.83;1.90;;;13.70;99.90;;;;;;5062602;27;20038;-43
2023/10/04 01:45:10;;;;;;;4.10;1.98;;;13.80;99.90;;;;;;5122919;27;20028;-43
2023/10/04 01:47:35;;;;;;;4.13;1.75;;;13.70;99.90;;;;;;5061346;28;20036;-43
2023/10/04 01:50:02;;;;;;;4.07;2.10;;;13.80;99.90;;;;;;5125520;27;20050;-43
2023/10/04 01:52:27;;;;;;;4.63;1.98;;;13.70;99.90;;;;;;5060905;28;20024;-42
2023/10/04 01:54:53;;;;;;;4.18;1.88;;;13.80;99.90;;;;;;5125996;27;20473;-42
2023/10/04 01:57:19;;;;;;;3.15;1.70;;;13.80;99.90;;;;;;5039953;28;20471;-42
2023/10/04 01:59:45;;;;;;;3.40;1.70;;;13.80;99.90;;;;;;5106772;27;20030;-42
2023/10/04 02:02:10;;;;;;;3.50;1.80;;;13.80;99.90;;;;;;5073934;27;20035;-42
2023/10/04 02:04:37;;;;;;;3.53;1.80;;;13.80;99.90;;;;;;5098672;27;20023;-43
2023/10/04 02:07:03;;;;;;;3.08;1.58;;;13.80;99.90;;;;;;5088793;27;20043;-42
2023/10/04 02:09:31;;;;;;;2.83;1.52;;;13.80;99.90;;;;;;5089749;27;20479;-43
2023/10/04 02:12:04;;;;;;;3.75;1.80;;;13.80;99.90;;;;;;5102296;27;20027;-43
2023/10/04 02:14:33;;;;;;;3.25;1.60;;;13.80;99.90;;;;;;5082677;27;20029;-43
2023/10/04 02:17:00;;;;;;;2.75;1.38;;;13.90;99.90;;;;;;5109176;27;20044;-43
2023/10/04 02:19:29;;;;;;;2.92;1.73;;;13.90;99.90;;;;;;5071665;27;20432;-44
2023/10/04 02:21:54;;;;;;;3.78;1.83;;;13.80;99.90;;;;;;5119015;27;20609;-43
2023/10/04 02:24:20;;;;;;;3.30;1.60;;;13.80;99.90;;;;;;5070884;27;20042;-43
2023/10/04 02:26:46;;;;;;;4.32;2.20;;;13.90;99.90;;;;;;5122912;27;20032;-42
2023/10/04 02:29:12;;;;;;;3.42;2.30;;;13.90;99.90;;;;;;5066180;27;20064;-42
2023/10/04 02:31:37;;;;;;;3.05;1.80;;;13.90;99.90;;;;;;5128861;27;20387;-43
2023/10/04 02:34:05;;;;;;;3.28;1.77;;;13.90;99.90;;;;;;5169551;27;20042;-43
2023/10/04 02:36:30;;;;;;;4.35;2.70;;;13.90;99.90;;;;;;5103378;27;20041;-42
2023/10/04 02:38:57;;;;;;;3.58;1.83;;;13.90;99.90;;;;;;5169719;27;20828;-42
2023/10/04 02:41:23;;;;;;;3.13;1.95;;;13.90;99.90;;;;;;5105437;27;20131;-43
2023/10/04 02:43:48;;;;;;;4.32;1.70;;;13.90;99.90;;;;;;5167402;27;20176;-43
2023/10/04 02:46:16;;;;;;;3.30;1.30;;;13.90;99.90;;;;;;5119360;27;20024;-42
2023/10/04 02:48:42;;;;;;;2.97;1.67;;;14.00;99.90;;;;;;5155278;27;20030;-42
2023/10/04 02:51:07;;;;;;;3.35;1.80;;;14.00;99.90;;;;;;5132251;27;20035;-43
2023/10/04 02:53:34;;;;;;;2.97;1.70;;;14.00;99.90;;;;;;5140545;27;20130;-42
2023/10/04 02:56:06;;;;;;;4.80;1.85;;;14.00;99.90;;;;;;5145422;27;20096;-42
2023/10/04 02:58:32;;;;;;;4.95;2.25;;;13.90;99.90;;;;;;5132327;27;20440;-43
2023/10/04 03:00:57;;;;;;;4.38;1.77;;;13.90;99.90;;;;;;5154592;27;20461;-43
2023/10/04 03:03:25;;;;;;;4.88;1.90;;;13.90;99.90;;;;;;5117657;27;20103;-42
2023/10/04 03:05:51;;;;;;;2.97;1.70;;;13.90;99.90;;;;;;5162416;27;20101;-42
2023/10/04 03:08:17;;;;;;;3.58;1.98;;;13.90;99.90;;;;;;5109181;27;20011;-43
2023/10/04 03:10:45;;;;;;;3.70;1.85;;;13.90;99.90;;;;;;5162719;27;20097;-42
2023/10/04 03:13:16;;;;;;;4.93;2.00;;;13.90;99.90;;;;;;5109913;27;20014;-43
2023/10/04 03:15:46;;;;;;;3.00;1.85;;;13.80;99.90;;;;;;5168927;27;20034;-43
2023/10/04 03:18:23;;;;;;;3.08;1.80;;;13.80;99.90;;;;;;5104435;27;20031;-42
2023/10/04 03:21:16;;;;;;;4.28;1.73;;;13.80;99.90;;;;;;5106785;27;20768;-43
2023/10/04 03:23:36;;;;;;;3.60;1.85;;;13.80;99.90;;;;;;5119780;27;20029;-43
2023/10/04 03:26:06;;;;;;;3.95;1.83;;;13.80;99.90;;;;;;5063421;27;20035;-42
2023/10/04 03:28:37;;;;;;;5.95;2.00;;;13.70;99.90;;;;;;5103367;27;20046;-42
2023/10/04 03:31:14;;;;;;;6.25;2.13;;;13.70;99.90;;;;;;5168980;27;20060;-42
2023/10/04 03:33:39;;;;;;;2.55;1.55;;;13.70;99.90;;;;;;5101308;27;20477;-43
2023/10/04 03:36:06;;;;;;;2.75;1.52;;;13.70;99.90;;;;;;5168151;27;20037;-42
2023/10/04 03:38:34;;;;;;;4.43;2.10;;;13.60;99.90;;;;;;5101922;27;20029;-43
2023/10/04 03:41:03;;;;;;;3.67;2.08;;;13.60;99.90;;;;;;5168281;27;20514;-43
2023/10/04 03:43:29;;;;;;;3.22;1.70;;;13.60;99.90;;;;;;5104362;27;20108;-43
2023/10/04 03:45:55;;;;;;;3.78;1.75;;;13.60;99.90;;;;;;5166681;27;20109;-43
2023/10/04 03:48:23;;;;;;;4.25;1.83;;;13.50;99.90;;;;;;5118137;27;20040;-43
2023/10/04 03:50:50;;;;;;;3.67;1.75;;;13.50;99.90;;;;;;5154338;27;20741;-43
2023/10/04 03:53:16;;;;;;;4.88;1.55;;;13.50;99.90;;;;;;5129297;27;20535;-43
2023/10/04 03:55:43;;;;;;;3.80;2.00;;;13.50;99.90;;;;;;5142232;27;20106;-43
2023/10/04 03:58:10;;;;;;;3.85;1.83;;;13.50;99.90;;;;;;5140348;27;20021;-42
2023/10/04 04:00:36;;;;;;;3.35;1.77;;;13.50;99.90;;;;;;5130257;27;20053;-42
2023/10/04 04:03:05;;;;;;;3.72;1.85;;;13.40;99.90;;;;;;5153588;27;20545;-44
2023/10/04 04:05:32;;;;;;;3.83;2.10;;;13.40;99.90;;;;;;5118790;27;20037;-41
2023/10/04 04:07:58;;;;;;;4.25;2.05;;;13.40;99.90;;;;;;5160970;27;20030;-42
2023/10/04 04:10:24;;;;;;;3.13;1.90;;;13.40;99.90;;;;;;5107660;27;20026;-42
2023/10/04 04:12:50;;;;;;;3.85;1.85;;;13.40;99.90;;;;;;5160702;27;20033;-43
2023/10/04 04:15:19;;;;;;;6.07;2.08;;;13.40;99.90;;;;;;5108695;27;20873;-44
2023/10/04 04:17:46;;;;;;;3.03;1.73;;;13.40;99.90;;;;;;5166402;27;20034;-44
2023/10/04 04:20:15;;;;;;;3.20;1.65;;;13.40;99.90;;;;;;5101614;27;20105;-43
2023/10/04 04:22:46;;;;;;;2.35;1.63;;;13.40;99.90;;;;;;5168535;27;20106;-43
2023/10/04 04:25:15;;;;;;;3.90;2.10;;;13.30;99.90;;;;;;5100223;27;20032;-43
2023/10/04 04:27:44;;;;;;;3.08;2.10;;;13.30;99.90;;;;;;5167982;27;20449;-43
2023/10/04 04:30:16;;;;;;;4.28;1.83;;;13.30;99.90;;;;;;5100607;27;20376;-37
2023/10/04 04:32:44;;;;;;;3.03;1.80;;;13.30;99.90;;;;;;5126922;27;20552;-34
2023/10/04 04:35:15;;;;;;;3.22;2.03;;;13.30;99.90;;;;;;5123484;27;20552;-35
2023/10/04 04:37:40;;;;;;;4.70;1.90;;;13.30;99.90;;;;;;5063642;27;20029;-36
2023/10/04 04:40:09;;;;;;;3.03;1.65;;;13.30;99.90;;;;;;5112494;27;20058;-37
2023/10/04 04:42:43;;;;;;;3.72;1.50;;;13.20;99.90;;;;;;5075099;27;20058;-34
2023/10/04 04:45:25;;;;;;;3.60;1.80;;;13.20;99.90;;;;;;5106474;27;20030;-33
2023/10/04 04:47:52;;;;;;;4.72;1.83;;;13.20;99.90;;;;;;5168042;27;20030;-35
2023/10/04 04:50:19;;;;;;;5.97;1.80;;;13.20;99.90;;;;;;5122608;27;20024;-34
2023/10/04 04:52:44;;;;;;;4.38;2.60;;;13.20;99.90;;;;;;5146875;27;20129;-36
2023/10/04 04:55:14;;;;;;;4.63;2.28;;;13.10;99.90;;;;;;5135071;27;20100;-36
2023/10/04 04:57:40;;;;;;;3.15;1.77;;;13.10;99.90;;;;;;5136706;27;20132;-39
2023/10/04 05:02:57;;;;;;;3.30;1.90;;;13.10;99.90;;;;;;5139059;27;20041;-35
2023/10/04 05:05:23;;;;;;;3.83;1.58;;;13.10;99.90;;;;;;5141305;27;20364;-35
2023/10/04 05:07:49;;;;;;;4.60;1.67;;;13.00;99.90;;;;;;5128009;27;20030;-36
2023/10/04 05:10:17;;;;;;;5.55;1.60;;;13.10;99.90;;;;;;5154053;27;20030;-35
2023/10/04 05:12:46;;;;;;;4.68;1.65;;;13.00;99.90;;;;;;5114204;27;20060;-44
2023/10/04 05:18:17;;;;;;;6.28;1.55;;;12.90;99.90;;;;;;5113692;27;20039;-35
2023/10/04 05:20:50;;;;;;;4.30;1.80;;;12.90;99.90;;;;;;5089333;27;20033;-35
2023/10/04 05:23:22;;;;;;;3.97;1.70;;;12.90;99.90;;;;;;5165463;27;20033;-35
2023/10/04 05:25:49;;;;;;;4.88;1.80;;;12.90;99.90;;;;;;5151884;27;20094;-35
2023/10/04 05:28:18;;;;;;;3.50;1.95;;;12.90;99.90;;;;;;5113206;27;20022;-34
2023/10/04 05:30:45;;;;;;;3.63;1.77;;;12.90;99.90;;;;;;5158344;27;20162;-34
2023/10/04 05:33:13;;;;;;;3.25;1.85;;;12.90;99.90;;;;;;5118756;27;20599;-35
2023/10/04 05:35:40;;;;;;;3.28;1.90;;;12.90;99.90;;;;;;5157540;27;20030;-35
2023/10/04 05:38:07;;;;;;;2.80;1.70;;;12.90;99.90;;;;;;5106298;27;20022;-35
2023/10/04 05:40:35;;;;;;;5.10;1.92;;;12.90;99.90;;;;;;5164133;27;20364;-34
2023/10/04 05:43:03;;;;;;;4.10;1.77;;;12.90;99.90;;;;;;5118242;27;20889;-34
2023/10/04 05:45:28;;;;;;;3.67;2.20;;;12.90;99.90;;;;;;5062011;28;20040;-34
2023/10/04 05:47:55;;;;;;;6.93;2.20;;;12.90;99.90;;;;;;5126035;27;20025;-34
2023/10/04 05:50:24;;;;;;;3.83;1.73;;;12.80;99.90;;;;;;5059126;28;20028;-34
2023/10/04 05:52:53;;;;;;;4.70;2.50;;;12.80;99.90;;;;;;5125417;27;20074;-36
2023/10/04 05:55:20;;;;;;;3.92;2.00;;;12.80;99.90;;;;;;5040000;28;20129;-34
2023/10/04 05:57:48;;;;;;;6.25;2.20;;;12.90;99.90;;;;;;5108906;27;20018;-34
2023/10/04 06:00:26;;;;;;;4.88;2.28;;;12.80;99.90;;;;;;5069257;27;20039;-35
2023/10/04 06:02:53;;;;;;;3.53;2.00;;;12.90;99.90;;;;;;5110555;27;20113;-36
2023/10/04 06:05:22;;;;;;;2.70;1.85;;;12.80;99.90;;;;;;5072354;27;20028;-35
2023/10/04 06:07:48;;;;;;;3.00;2.08;;;12.80;99.90;;;;;;5101239;27;20524;-34
2023/10/04 06:10:15;;;;;;;4.25;1.80;;;12.80;99.90;;;;;;5084070;27;20036;-35
2023/10/04 06:12:41;;;;;;;5.07;2.13;;;12.90;99.90;;;;;;5088599;27;20011;-35
2023/10/04 06:15:14;;;;;;;4.68;1.85;;;12.80;99.90;;;;;;5097463;27;20803;-35
2023/10/04 06:17:50;;;;;;;2.97;1.85;;;12.90;99.90;;;;;;5079764;27;20108;-35
2023/10/04 06:20:23;;;;;;;3.53;1.88;;;12.90;99.90;;;;;;5097037;27;20040;-35
2023/10/04 06:23:12;;;;;;;4.43;2.17;;;12.90;99.90;;;;;;5079742;27;20036;-35
2023/10/04 06:25:47;;;;;;;4.68;2.10;;;12.80;99.90;;;;;;5089797;27;20068;-35
2023/10/04 06:28:15;;;;;;;3.55;1.83;;;12.90;99.90;;;;;;5088315;27;20026;-36
2023/10/04 06:30:42;;;;;;;4.28;2.00;;;12.90;99.90;;;;;;5094221;27;20052;-35
2023/10/04 06:33:09;;;;;;;7.43;2.50;;;12.90;99.90;;;;;;5092982;27;20605;-36
2023/10/04 06:35:37;;;;;;;7.28;2.42;;;12.90;99.90;;;;;;5119143;27;20030;-35
2023/10/04 06:38:08;;;;;;;7.13;2.78;;;13.00;99.90;;;;;;5157157;27;20022;-36
2023/10/04 06:40:35;;;;;;;4.32;2.47;;;13.00;99.90;;;;;;5111590;27;20030;-35
2023/10/04 06:43:05;;;;;;;5.28;2.47;;;13.10;99.90;;;;;;5157459;27;20479;-37
2023/10/04 06:45:31;;;;;;;3.72;2.20;;;13.10;99.90;;;;;;5105941;27;20463;-33
2023/10/04 06:47:58;;;;;;;5.10;2.72;;;13.10;99.90;;;;;;5157237;27;20495;-36
2023/10/04 06:50:32;;;;;;;4.35;2.50;;;13.20;99.90;;;;;;5106437;27;20032;-36
2023/10/04 06:52:59;;;;;;;4.15;2.78;;;13.20;99.90;;;;;;5166513;27;20075;-35
2023/10/04 06:55:25;;;;;;;6.30;2.70;;;13.20;99.90;;;;;;5104041;27;20030;-34
2023/10/04 06:57:52;;;;;;;4.97;2.58;;;13.20;99.90;;;;;;5170317;27;20369;-34
2023/10/04 07:00:35;;;;;;;5.80;2.92;;;13.20;99.90;;;;;;5101792;27;20028;-35
2023/10/04 07:03:01;;;;;;;5.32;3.03;;;13.20;99.90;;;;;;5168879;27;20518;-34
2023/10/04 07:05:31;;;;;;;3.92;2.25;;;13.20;99.90;;;;;;5102677;27;20536;-34
2023/10/04 07:07:57;;;;;;;6.32;3.05;;;13.20;99.90;;;;;;5168715;27;20019;-34
2023/10/04 07:10:27;;;;;;;4.03;2.38;;;13.20;99.90;;;;;;5105232;27;20076;-36
2023/10/04 07:12:56;;;;;;;7.75;3.30;;;13.20;99.90;;;;;;5042648;28;20396;-35
2023/10/04 07:15:28;;;;;;;3.88;2.60;;;13.30;99.90;;;;;;5113230;27;20157;-35
2023/10/04 07:17:54;;;;;;;7.30;3.15;;;13.30;99.90;;;;;;5070156;27;20032;-36
2023/10/04 07:20:20;;;;;;;5.78;2.78;;;13.30;99.90;;;;;;5108493;27;20085;-37
2023/10/04 07:22:59;;;;;;;7.85;3.72;;;13.40;99.90;;;;;;5083087;27;20522;-34
2023/10/04 07:25:29;;;;;;;4.53;2.97;;;13.40;99.90;;;;;;5105133;27;20422;-35
2023/10/04 07:28:02;;;;;;;7.75;3.63;;;13.50;99.90;;;;;;5083502;27;20111;-35
2023/10/04 07:30:29;;;;;;;5.13;3.20;;;13.50;99.90;;;;;;5100494;27;20524;-34
2023/10/04 07:32:55;;;;;;;5.25;3.13;;;13.50;99.90;;;;;;5130791;27;20034;-34
2023/10/04 07:35:25;;;;;;;6.65;3.10;;;13.60;99.90;;;;;;5143157;27;20566;-36
2023/10/04 07:37:54;;;;;;;5.38;2.50;;;13.60;99.90;;;;;;5131774;27;20150;-36
2023/10/04 07:40:23;;;;;;;7.80;2.85;;;13.70;99.90;;;;;;5152205;27;20019;-37
2023/10/04 07:42:52;;;;;;;4.25;2.63;;;13.70;99.90;;;;;;5121158;27;20022;-36
2023/10/04 07:45:19;;;;;;;7.30;3.70;;;13.70;99.90;;;;;;5160719;27;20102;-36
2023/10/04 07:47:47;;;;;;;4.05;2.70;;;13.80;99.90;;;;;;5099587;27;20049;-36
2023/10/04 07:50:15;;;;;;;4.75;2.95;;;13.90;99.90;;;;;;5159412;27;20100;-36
2023/10/04 07:52:47;;;;;;;5.15;2.65;;;13.90;99.90;;;;;;5109554;27;20022;-35
2023/10/04 07:55:18;;;;;;;4.90;2.80;;;13.90;99.90;;;;;;5160285;27;20114;-36
2023/10/04 07:57:58;;;;;;;9.25;3.10;;;14.00;99.90;;;;;;5109530;27;20022;-35
2023/10/04 08:00:27;;;;;;;8.45;3.55;;;14.10;99.90;;;;;;5161179;27;20028;-35
2023/10/04 08:02:57;;;;;;;6.22;2.55;;;14.10;99.90;;;;;;5108690;27;20054;-36
2023/10/04 08:05:32;;;;;;;4.88;2.63;;;14.20;99.90;;;;;;5166516;27;20026;-37
2023/10/04 08:08:00;;;;;;;6.13;2.70;;;14.30;99.90;;;;;;5118326;27;20021;-35
2023/10/04 08:10:29;;;;;;;7.32;3.75;;;14.40;99.90;;;;;;5061723;27;20108;-35
2023/10/04 08:13:01;;;;;;;5.60;2.88;;;14.40;99.90;;;;;;5101397;27;20062;-35
2023/10/04 08:15:30;;;;;;;4.90;2.92;;;14.50;99.90;;;;;;5168073;27;20769;-35
2023/10/04 08:17:58;;;;;;;5.22;3.13;;;14.60;99.90;;;;;;5100852;27;20219;-34
2023/10/04 08:20:29;;;;;;;7.70;2.80;;;14.70;99.90;;;;;;5167812;27;20037;-36
2023/10/04 08:22:59;;;;;;;8.75;3.15;;;14.70;99.90;;;;;;5101431;27;20029;-36
2023/10/04 08:25:28;;;;;;;8.88;2.95;;;14.80;99.90;;;;;;5166661;27;20045;-35
2023/10/04 08:27:59;;;;;;;6.00;2.95;;;14.90;99.90;;;;;;5107783;27;20017;-36
2023/10/04 08:30:25;;;;;;;6.90;3.10;;;15.00;99.90;;;;;;5165708;27;20033;-35
2023/10/04 08:32:51;;;;;;;6.97;2.63;;;15.10;99.90;;;;;;5148606;27;20632;-35
2023/10/04 08:35:33;;;;;;;5.45;2.75;;;15.20;99.90;;;;;;5113843;27;20036;-35
2023/10/04 08:38:03;;;;;;;6.03;2.70;;;15.30;99.90;;;;;;5091820;27;20029;-34
2023/10/04 08:40:29;;;;;;;6.85;3.17;;;15.30;99.90;;;;;;5154473;27;20544;-35
2023/10/04 08:42:57;;;;;;;8.38;3.20;;;15.30;99.90;;;;;;5129518;27;20028;-34
2023/10/04 08:45:27;;;;;;;8.73;3.72;;;15.40;99.90;;;;;;5141015;27;20037;-35
2023/10/04 08:47:57;;;;;;;6.40;3.45;;;15.50;99.90;;;;;;5138455;27;20020;-34
2023/10/04 08:50:35;;;;;;;6.93;2.90;;;15.60;99.90;;;;;;5133210;27;20033;-35
2023/10/04 08:53:18;;;;;;;6.53;3.38;;;15.60;99.90;;;;;;5138660;27;20036;-35
2023/10/04 08:55:48;;;;;;;7.75;3.05;;;15.70;99.90;;;;;;5141529;27;20032;-34
2023/10/04 08:58:15;;;;;;;9.75;3.13;;;15.70;99.90;;;;;;5137072;27;20020;-35
2023/10/04 09:00:43;;;;;;;5.50;3.22;;;15.70;99.90;;;;;;5132154;27;20048;-35
2023/10/04 09:03:14;;;;;;;6.07;2.78;;;15.80;99.90;;;;;;5148115;27;20030;-34
2023/10/04 09:05:46;;;;;;;7.93;2.97;;;15.80;99.90;;;;;;5120141;27;20029;-36
2023/10/04 09:08:11;;;;;;;5.30;2.75;;;15.80;99.90;;;;;;5153317;27;20061;-41
2023/10/04 09:10:39;;;;;;;6.13;3.10;;;15.80;99.90;;;;;;5112938;27;20117;-35
2023/10/04 09:13:05;;;;;;;6.38;3.13;;;15.90;99.90;;;;;;5157246;27;20033;-35
2023/10/04 09:15:31;;;;;;;7.55;3.08;;;15.90;99.90;;;;;;5107169;27;20065;-36
2023/10/04 09:18:02;;;;;;;6.20;3.17;;;15.90;99.90;;;;;;5160228;27;20101;-36
2023/10/04 09:20:35;;;;;;;7.13;3.43;;;15.90;99.90;;;;;;5114918;27;20032;-35
2023/10/04 09:23:13;;;;;;;7.78;3.63;;;16.00;99.90;;;;;;5063093;27;20045;-36
2023/10/04 09:25:40;;;;;;;8.32;3.80;;;16.00;99.90;;;;;;5116921;27;20033;-35
2023/10/04 09:28:10;;;;;;;5.38;2.42;;;16.10;99.90;;;;;;5060312;27;20625;-35
2023/10/04 09:30:36;;;;;;;9.68;3.50;;;16.10;99.90;;;;;;5098873;27;20022;-35
2023/10/04 09:33:21;;;;;;;10.30;3.33;;;16.20;99.90;;;;;;5131083;27;20045;-35
2023/10/04 09:35:46;;;;;;;8.48;3.88;;;16.20;99.90;;;;;;5098307;27;20118;-36
2023/10/04 09:38:18;;;;;;;6.90;3.08;;;16.30;99.90;;;;;;5164888;27;20030;-35
2023/10/04 09:40:56;;;;;;;7.00;3.17;;;16.30;99.90;;;;;;5096995;27;20854;-35
2023/10/04 09:43:35;;;;;;;6.97;3.08;;;16.40;99.90;;;;;;5040581;27;20029;-35
2023/10/04 09:46:03;;;;;;;6.07;2.75;;;16.50;99.90;;;;;;5123835;27;20033;-35
2023/10/04 09:48:33;;;;;;;8.05;3.22;;;16.50;99.90;;;;;;5059311;27;20725;-35
2023/10/04 09:51:07;;;;;;;6.78;3.15;;;16.60;99.90;;;;;;5124960;27;20855;-36
2023/10/04 09:53:38;;;;;;;9.63;3.28;;;16.70;99.90;;;;;;5060075;28;20025;-36
2023/10/04 09:56:03;;;;;;;6.95;3.10;;;16.70;99.90;;;;;;5124281;27;20030;-35
2023/10/04 09:58:30;;;;;;;8.30;3.22;;;16.80;99.90;;;;;;5058883;27;20743;-35
2023/10/04 10:01:19;;;;;;;7.47;3.30;;;16.80;99.90;;;;;;5116720;27;20029;-36
2023/10/04 10:03:56;;;;;;;5.57;3.13;;;16.90;99.90;;;;;;5039048;28;20025;-35
2023/10/04 10:06:23;;;;;;;6.35;3.10;;;16.90;99.90;;;;;;5123334;27;20033;-35
2023/10/04 10:08:54;;;;;;;6.00;2.72;;;17.00;99.90;;;;;;5059976;28;20275;-34
2023/10/04 10:11:22;;;;;;;7.00;2.80;;;17.10;99.90;;;;;;5118304;27;20075;-35
2023/10/04 10:13:49;;;;;;;6.03;2.65;;;17.10;99.90;;;;;;5065437;27;20080;-35
2023/10/04 10:16:19;;;;;;;5.70;3.25;;;17.20;99.90;;;;;;5106646;27;20038;-36
2023/10/04 10:18:48;;;;;;;5.80;3.15;;;17.20;99.90;;;;;;5074672;27;20364;-43
2023/10/04 10:21:13;;;;;;;6.25;3.03;;;17.30;99.90;;;;;;5099028;27;20018;-43
2023/10/04 10:24:04;;;;;;;9.70;3.78;;;17.30;99.90;;;;;;5138489;27;20469;-43
2023/10/04 10:26:33;;;;;;;7.05;3.47;;;17.40;99.90;;;;;;5122080;27;20021;-43
2023/10/04 10:29:04;;;;;;;9.38;3.53;;;17.40;99.90;;;;;;5148062;27;20030;-43
2023/10/04 10:31:30;;;;;;;9.55;3.65;;;17.40;99.90;;;;;;5131502;27;20475;-43
2023/10/04 10:33:56;;;;;;;6.05;3.38;;;17.40;99.90;;;;;;5067093;27;20783;-43
2023/10/04 10:36:25;;;;;;;6.18;3.28;;;17.40;99.90;;;;;;5085913;27;20083;-44
2023/10/04 10:38:52;;;;;;;6.68;3.35;;;17.40;99.90;;;;;;5143303;27;20030;-45
2023/10/04 10:41:48;;;;;;;10.20;3.50;;;17.40;99.90;;;;;;5156200;27;20421;-44
2023/10/04 10:44:20;;;;;;;8.25;2.95;;;17.40;99.90;;;;;;5136744;27;20546;-42
2023/10/04 10:46:54;;;;;;;8.63;3.58;;;17.50;99.90;;;;;;5143870;27;20391;-43
2023/10/04 10:49:40;;;;;;;5.43;3.03;;;17.50;99.90;;;;;;5133805;27;20061;-43
2023/10/04 10:52:38;;;;;;;9.20;3.47;;;17.60;99.90;;;;;;5135169;27;20031;-44
2023/10/04 10:55:16;;;;;;;6.35;3.10;;;17.60;99.90;;;;;;5154655;27;20038;-44
2023/10/04 10:57:44;;;;;;;7.30;3.30;;;17.70;99.90;;;;;;5117198;27;20045;-43
2023/10/04 11:02:39;;;;;;;7.95;3.40;;;17.80;99.90;;;;;;5127961;27;20119;-43
2023/10/04 11:05:08;;;;;;;6.07;3.20;;;17.80;99.90;;;;;;5143901;27;20442;-44
2023/10/04 11:07:34;;;;;;;8.45;3.70;;;17.80;99.90;;;;;;5137224;27;20100;-43
2023/10/04 11:10:01;;;;;;;8.82;3.50;;;17.90;99.90;;;;;;5133724;27;20822;-43
2023/10/04 11:12:34;;;;;;;9.57;3.65;;;18.00;99.90;;;;;;5150718;27;20093;-43
2023/10/04 11:15:00;;;;;;;7.72;4.25;;;18.10;99.90;;;;;;5125587;27;20158;-44
2023/10/04 11:17:26;;;;;;;5.32;3.30;;;18.10;99.90;;;;;;5159267;27;20117;-43
2023/10/04 11:19:53;;;;;;;6.97;3.25;;;18.10;99.90;;;;;;5112372;27;20053;-42
2023/10/04 11:22:19;;;;;;;7.45;3.72;;;18.10;99.90;;;;;;5160829;27;20341;-43
2023/10/04 11:24:46;;;;;;;6.72;3.15;;;18.20;99.90;;;;;;5110212;27;20457;-43
2023/10/04 11:27:19;;;;;;;6.00;2.92;;;18.20;99.90;;;;;;5164625;27;20030;-43
2023/10/04 11:29:45;;;;;;;;;;;18.20;99.90;;;;;;5119305;27;20040;-43
2023/10/04 11:32:11;;;;;;;7.55;3.40;;;18.20;99.90;;;;;;5063314;28;20148;-43
2023/10/04 11:34:37;;;;;;;8.63;3.63;;;18.20;99.90;;;;;;5124597;27;20739;-43
2023/10/04 11:37:04;;;;;;;8.35;3.85;;;18.20;99.90;;;;;;5062085;28;20032;-43
2023/10/04 11:39:34;;;;;;;8.73;3.20;;;18.20;99.90;;;;;;5127668;27;20026;-44
2023/10/04 11:42:04;;;;;;;7.93;3.58;;;18.30;99.90;;;;;;5062008;28;20120;-43
2023/10/04 11:44:33;;;;;;;7.82;3.10;;;18.30;99.90;;;;;;5122749;27;20082;-43
2023/10/04 11:47:08;;;;;;;9.07;3.90;;;18.20;99.90;;;;;;5063774;27;20039;-44
2023/10/04 11:49:35;;;;;;;7.88;3.75;;;18.20;99.90;;;;;;5120678;27;20117;-43
2023/10/04 11:52:05;;;;;;;11.35;4.13;;;18.10;99.90;;;;;;5070699;27;20031;-43
2023/10/04 11:54:41;;;;;;;7.35;3.80;;;18.10;99.90;;;;;;5109152;27;20022;-43
2023/10/04 11:57:08;;;;;;;39.42;6.80;;;18.10;99.90;;;;;;5073644;27;20056;-44
2023/10/04 11:59:34;;;;;;;10.00;4.03;;;18.10;99.90;;;;;;5104234;27;20026;-43
2023/10/04 12:02:00;;;;;;;7.57;3.90;;;18.20;99.90;;;;;;5085138;27;20024;-43
2023/10/04 12:04:30;;;;;;;9.07;4.30;;;18.20;99.90;;;;;;5088563;27;20386;-44
2023/10/04 12:07:03;;;;;;;6.75;3.72;;;18.20;99.90;;;;;;5095633;27;20092;-43
2023/10/04 12:09:31;;;;;;;7.38;3.60;;;18.20;99.90;;;;;;5084184;27;20588;-43
2023/10/04 12:11:58;;;;;;;9.18;3.50;;;18.20;99.90;;;;;;5135099;27;20053;-44
2023/10/04 12:14:24;;;;;;;7.88;3.72;;;18.20;99.90;;;;;;5155654;27;20019;-43
2023/10/04 12:16:50;;;;;;;9.77;3.83;;;18.20;99.90;;;;;;5113011;27;20046;-43
2023/10/04 12:19:16;;;;;;;6.65;3.55;;;18.20;99.90;;;;;;5159634;27;20024;-43
2023/10/04 12:21:43;;;;;;;6.90;3.42;;;18.20;99.90;;;;;;5108278;27;20026;-43
2023/10/04 12:24:10;;;;;;;5.43;3.28;;;18.30;99.90;;;;;;5160727;27;20026;-44
2023/10/04 12:26:36;;;;;;;9.52;3.63;;;18.40;99.90;;;;;;5106779;27;20054;-43
2023/10/04 12:29:03;;;;;;;8.20;3.72;;;18.50;99.90;;;;;;5166821;27;20030;-44
2023/10/04 12:31:28;;;;;;;7.15;3.40;;;18.50;99.90;;;;;;5100128;27;20369;-43
2023/10/04 12:33:55;;;;;;;5.50;3.20;;;18.50;99.90;;;;;;5103846;27;20051;-43
2023/10/04 12:36:22;;;;;;;7.65;4.10;;;18.60;99.90;;;;;;5127071;27;20062;-48
2023/10/04 12:38:48;;;;;;;6.38;3.45;;;18.60;99.90;;;;;;5062314;28;20778;-43
2023/10/04 12:41:15;;;;;;;6.53;3.85;;;18.60;99.90;;;;;;5114163;27;20037;-45
2023/10/04 12:43:41;;;;;;;10.43;3.72;;;18.60;99.90;;;;;;5071938;27;20135;-43
2023/10/04 12:46:06;;;;;;;8.10;3.40;;;18.60;99.90;;;;;;5102090;27;20020;-44
2023/10/04 12:48:32;;;;;;;6.75;3.53;;;18.60;99.90;;;;;;5086534;27;20021;-44
2023/10/04 12:50:58;;;;;;;8.18;4.53;;;18.60;99.90;;;;;;5087578;27;20105;-44
2023/10/04 12:53:27;;;;;;;6.60;3.38;;;18.60;99.90;;;;;;5142276;27;20060;-44
2023/10/04 12:55:54;;;;;;;7.63;3.35;;;18.60;99.90;;;;;;5150006;27;20030;-43
2023/10/04 12:58:20;;;;;;;6.93;3.10;;;18.60;99.90;;;;;;5116840;27;20699;-43
2023/10/04 13:00:46;;;;;;;7.50;3.15;;;18.60;99.90;;;;;;5159538;27;20026;-46
2023/10/04 13:03:12;;;;;;;5.97;3.00;;;18.60;99.90;;;;;;5107406;27;20041;-44
2023/10/04 13:05:38;;;;;;;10.23;3.28;;;18.70;99.90;;;;;;5158743;27;20521;-44
2023/10/04 13:08:15;;;;;;;4.68;2.58;;;18.60;99.90;;;;;;5106858;27;20024;-43